sensor_id;sensor_type;location;lat;lon;timestamp;temperature;humidity
210;DHT22;90;48.810;9.120;2024-01-25T00:02:24;10.30;79.90
210;DHT22;90;48.810;9.120;2024-01-25T00:04:50;10.30;79.90
210;DHT22;90;48.810;9.120;2024-01-25T00:07:18;10.30;80.00
210;DHT22;90;48.810;9.120;2024-01-25T00:09:45;10.20;80.10
210;DHT22;90;48.810;9.120;2024-01-25T00:12:12;10.20;80.30
210;DHT22;90;48.810;9.120;2024-01-25T00:14:38;10.20;80.40
210;DHT22;90;48.810;9.120;2024-01-25T00:17:05;10.20;80.40
210;DHT22;90;48.810;9.120;2024-01-25T00:19:33;10.20;80.50
210;DHT22;90;48.810;9.120;2024-01-25T00:22:00;10.20;80.60
210;DHT22;90;48.810;9.120;2024-01-25T00:24:28;10.30;80.60
210;DHT22;90;48.810;9.120;2024-01-25T00:26:55;10.30;80.50
210;DHT22;90;48.810;9.120;2024-01-25T00:29:21;10.30;80.70
210;DHT22;90;48.810;9.120;2024-01-25T00:31:48;10.30;81.00
210;DHT22;90;48.810;9.120;2024-01-25T00:34:15;10.30;81.50
210;DHT22;90;48.810;9.120;2024-01-25T00:36:42;10.20;81.70
210;DHT22;90;48.810;9.120;2024-01-25T00:39:09;10.30;81.80
210;DHT22;90;48.810;9.120;2024-01-25T00:41:38;10.30;81.90
210;DHT22;90;48.810;9.120;2024-01-25T00:44:05;10.30;82.00
210;DHT22;90;48.810;9.120;2024-01-25T00:46:32;10.30;81.90
210;DHT22;90;48.810;9.120;2024-01-25T00:49:00;10.30;82.10
210;DHT22;90;48.810;9.120;2024-01-25T00:51:27;10.20;82.40
210;DHT22;90;48.810;9.120;2024-01-25T00:53:54;10.30;82.60
210;DHT22;90;48.810;9.120;2024-01-25T00:56:21;10.30;82.40
210;DHT22;90;48.810;9.120;2024-01-25T00:58:50;10.30;82.30
210;DHT22;90;48.810;9.120;2024-01-25T01:01:21;10.30;82.80
210;DHT22;90;48.810;9.120;2024-01-25T01:03:49;10.30;82.50
210;DHT22;90;48.810;9.120;2024-01-25T01:06:19;10.30;82.60
210;DHT22;90;48.810;9.120;2024-01-25T01:08:46;10.40;82.60
210;DHT22;90;48.810;9.120;2024-01-25T01:11:13;10.40;82.50
210;DHT22;90;48.810;9.120;2024-01-25T01:13:40;10.40;82.50
210;DHT22;90;48.810;9.120;2024-01-25T01:16:08;10.40;82.80
210;DHT22;90;48.810;9.120;2024-01-25T01:18:34;10.30;82.70
210;DHT22;90;48.810;9.120;2024-01-25T01:21:01;10.30;82.70
210;DHT22;90;48.810;9.120;2024-01-25T01:23:28;10.30;82.70
210;DHT22;90;48.810;9.120;2024-01-25T01:25:54;10.30;82.60
210;DHT22;90;48.810;9.120;2024-01-25T01:28:21;10.40;82.40
210;DHT22;90;48.810;9.120;2024-01-25T01:30:48;10.40;82.10
210;DHT22;90;48.810;9.120;2024-01-25T01:33:16;10.40;81.80
210;DHT22;90;48.810;9.120;2024-01-25T01:35:42;10.30;82.10
210;DHT22;90;48.810;9.120;2024-01-25T01:38:09;10.30;82.00
210;DHT22;90;48.810;9.120;2024-01-25T01:40:36;10.30;82.20
210;DHT22;90;48.810;9.120;2024-01-25T01:43:03;10.30;82.30
210;DHT22;90;48.810;9.120;2024-01-25T01:45:30;10.30;82.10
210;DHT22;90;48.810;9.120;2024-01-25T01:47:57;10.30;82.10
210;DHT22;90;48.810;9.120;2024-01-25T01:50:25;10.30;82.30
210;DHT22;90;48.810;9.120;2024-01-25T01:52:53;10.30;81.80
210;DHT22;90;48.810;9.120;2024-01-25T01:55:21;10.30;81.80
210;DHT22;90;48.810;9.120;2024-01-25T01:57:48;10.30;81.70
210;DHT22;90;48.810;9.120;2024-01-25T02:00:15;10.30;81.60
210;DHT22;90;48.810;9.120;2024-01-25T02:02:42;10.30;81.20
210;DHT22;90;48.810;9.120;2024-01-25T02:05:10;10.30;81.00
210;DHT22;90;48.810;9.120;2024-01-25T02:07:39;10.20;81.30
210;DHT22;90;48.810;9.120;2024-01-25T02:10:07;10.20;81.30
210;DHT22;90;48.810;9.120;2024-01-25T02:12:34;10.20;81.10
210;DHT22;90;48.810;9.120;2024-01-25T02:15:01;10.20;81.10
210;DHT22;90;48.810;9.120;2024-01-25T02:17:27;10.20;81.00
210;DHT22;90;48.810;9.120;2024-01-25T02:19:54;10.20;81.10
210;DHT22;90;48.810;9.120;2024-01-25T02:22:22;10.20;80.70
210;DHT22;90;48.810;9.120;2024-01-25T02:24:49;10.20;80.50
210;DHT22;90;48.810;9.120;2024-01-25T02:27:15;10.20;80.30
210;DHT22;90;48.810;9.120;2024-01-25T02:29:42;10.20;80.30
210;DHT22;90;48.810;9.120;2024-01-25T02:32:09;10.20;80.00
210;DHT22;90;48.810;9.120;2024-01-25T02:34:36;10.10;80.10
210;DHT22;90;48.810;9.120;2024-01-25T02:37:03;10.10;80.30
210;DHT22;90;48.810;9.120;2024-01-25T02:39:32;10.10;80.50
210;DHT22;90;48.810;9.120;2024-01-25T02:41:59;10.10;80.90
210;DHT22;90;48.810;9.120;2024-01-25T02:44:25;10.00;81.10
210;DHT22;90;48.810;9.120;2024-01-25T02:46:52;10.00;80.90
210;DHT22;90;48.810;9.120;2024-01-25T02:49:19;10.10;80.80
210;DHT22;90;48.810;9.120;2024-01-25T02:51:45;10.00;81.10
210;DHT22;90;48.810;9.120;2024-01-25T02:54:12;10.10;81.00
210;DHT22;90;48.810;9.120;2024-01-25T02:56:40;10.00;81.20
210;DHT22;90;48.810;9.120;2024-01-25T02:59:07;10.00;81.40
210;DHT22;90;48.810;9.120;2024-01-25T03:01:40;10.00;81.90
210;DHT22;90;48.810;9.120;2024-01-25T03:04:07;10.00;82.00
210;DHT22;90;48.810;9.120;2024-01-25T03:06:34;9.90;82.20
210;DHT22;90;48.810;9.120;2024-01-25T03:09:01;9.90;82.20
210;DHT22;90;48.810;9.120;2024-01-25T03:11:30;9.90;82.30
210;DHT22;90;48.810;9.120;2024-01-25T03:13:58;9.90;82.40
210;DHT22;90;48.810;9.120;2024-01-25T03:16:24;9.90;82.40
210;DHT22;90;48.810;9.120;2024-01-25T03:18:51;9.90;82.30
210;DHT22;90;48.810;9.120;2024-01-25T03:21:18;10.00;82.30
210;DHT22;90;48.810;9.120;2024-01-25T03:23:45;9.90;82.40
210;DHT22;90;48.810;9.120;2024-01-25T03:26:11;9.90;82.40
210;DHT22;90;48.810;9.120;2024-01-25T03:28:38;9.90;82.40
210;DHT22;90;48.810;9.120;2024-01-25T03:31:07;10.00;82.20
210;DHT22;90;48.810;9.120;2024-01-25T03:33:33;9.90;82.30
210;DHT22;90;48.810;9.120;2024-01-25T03:36:02;9.90;82.30
210;DHT22;90;48.810;9.120;2024-01-25T03:38:28;9.90;82.30
210;DHT22;90;48.810;9.120;2024-01-25T03:40:55;9.90;82.20
210;DHT22;90;48.810;9.120;2024-01-25T03:43:23;9.90;82.00
210;DHT22;90;48.810;9.120;2024-01-25T03:45:50;9.90;81.80
210;DHT22;90;48.810;9.120;2024-01-25T03:48:18;9.90;81.90
210;DHT22;90;48.810;9.120;2024-01-25T03:50:45;9.80;82.30
210;DHT22;90;48.810;9.120;2024-01-25T03:53:12;9.90;82.50
210;DHT22;90;48.810;9.120;2024-01-25T03:55:38;9.80;82.30
210;DHT22;90;48.810;9.120;2024-01-25T03:58:05;9.90;82.50
210;DHT22;90;48.810;9.120;2024-01-25T04:00:32;9.90;82.60
210;DHT22;90;48.810;9.120;2024-01-25T04:02:58;9.90;82.50
210;DHT22;90;48.810;9.120;2024-01-25T04:05:26;9.90;82.10
210;DHT22;90;48.810;9.120;2024-01-25T04:07:53;9.90;82.50
210;DHT22;90;48.810;9.120;2024-01-25T04:10:20;9.90;82.40
210;DHT22;90;48.810;9.120;2024-01-25T04:12:47;9.90;82.60
210;DHT22;90;48.810;9.120;2024-01-25T04:15:13;9.90;82.60
210;DHT22;90;48.810;9.120;2024-01-25T04:17:40;9.90;82.70
210;DHT22;90;48.810;9.120;2024-01-25T04:20:07;9.90;82.60
210;DHT22;90;48.810;9.120;2024-01-25T04:22:36;9.90;82.70
210;DHT22;90;48.810;9.120;2024-01-25T04:25:04;10.00;82.70
210;DHT22;90;48.810;9.120;2024-01-25T04:27:30;9.90;82.60
210;DHT22;90;48.810;9.120;2024-01-25T04:29:57;9.80;83.10
210;DHT22;90;48.810;9.120;2024-01-25T04:32:24;9.80;83.10
210;DHT22;90;48.810;9.120;2024-01-25T04:34:50;9.70;83.40
210;DHT22;90;48.810;9.120;2024-01-25T04:37:17;9.70;83.30
210;DHT22;90;48.810;9.120;2024-01-25T04:39:45;9.70;83.60
210;DHT22;90;48.810;9.120;2024-01-25T04:42:12;9.60;83.10
210;DHT22;90;48.810;9.120;2024-01-25T04:44:39;9.60;83.00
210;DHT22;90;48.810;9.120;2024-01-25T04:47:05;9.50;82.90
210;DHT22;90;48.810;9.120;2024-01-25T04:49:32;9.50;82.90
210;DHT22;90;48.810;9.120;2024-01-25T04:51:59;9.50;82.40
210;DHT22;90;48.810;9.120;2024-01-25T04:54:26;9.50;82.70
210;DHT22;90;48.810;9.120;2024-01-25T04:56:54;9.40;82.90
210;DHT22;90;48.810;9.120;2024-01-25T04:59:21;9.40;82.60
210;DHT22;90;48.810;9.120;2024-01-25T05:01:47;9.40;82.50
210;DHT22;90;48.810;9.120;2024-01-25T05:04:15;9.40;82.10
210;DHT22;90;48.810;9.120;2024-01-25T05:06:42;9.40;82.20
210;DHT22;90;48.810;9.120;2024-01-25T05:09:09;9.40;81.90
210;DHT22;90;48.810;9.120;2024-01-25T05:11:38;9.40;81.60
210;DHT22;90;48.810;9.120;2024-01-25T05:14:06;9.40;81.00
210;DHT22;90;48.810;9.120;2024-01-25T05:16:33;9.30;81.40
210;DHT22;90;48.810;9.120;2024-01-25T05:19:00;9.30;81.40
210;DHT22;90;48.810;9.120;2024-01-25T05:21:27;9.20;81.70
210;DHT22;90;48.810;9.120;2024-01-25T05:23:54;9.30;81.80
210;DHT22;90;48.810;9.120;2024-01-25T05:26:20;9.30;81.40
210;DHT22;90;48.810;9.120;2024-01-25T05:28:47;9.20;81.20
210;DHT22;90;48.810;9.120;2024-01-25T05:31:15;9.10;81.20
210;DHT22;90;48.810;9.120;2024-01-25T05:33:42;9.10;81.30
210;DHT22;90;48.810;9.120;2024-01-25T05:36:09;9.10;80.90
210;DHT22;90;48.810;9.120;2024-01-25T05:38:36;9.10;81.10
210;DHT22;90;48.810;9.120;2024-01-25T05:41:03;9.10;81.10
210;DHT22;90;48.810;9.120;2024-01-25T05:43:29;9.10;80.70
210;DHT22;90;48.810;9.120;2024-01-25T05:45:56;9.10;80.60
210;DHT22;90;48.810;9.120;2024-01-25T05:48:24;9.00;80.70
210;DHT22;90;48.810;9.120;2024-01-25T05:50:51;9.00;81.30
210;DHT22;90;48.810;9.120;2024-01-25T05:53:18;8.90;81.70
210;DHT22;90;48.810;9.120;2024-01-25T05:55:45;8.90;81.90
210;DHT22;90;48.810;9.120;2024-01-25T05:58:12;8.90;82.10
210;DHT22;90;48.810;9.120;2024-01-25T06:00:39;8.90;82.40
210;DHT22;90;48.810;9.120;2024-01-25T06:03:05;8.90;82.40
210;DHT22;90;48.810;9.120;2024-01-25T06:05:33;8.90;82.70
210;DHT22;90;48.810;9.120;2024-01-25T06:08:00;8.90;83.20
210;DHT22;90;48.810;9.120;2024-01-25T06:10:27;8.80;83.70
210;DHT22;90;48.810;9.120;2024-01-25T06:12:53;8.80;83.70
210;DHT22;90;48.810;9.120;2024-01-25T06:15:20;8.90;83.90
210;DHT22;90;48.810;9.120;2024-01-25T06:17:47;9.00;84.00
210;DHT22;90;48.810;9.120;2024-01-25T06:20:14;9.00;84.00
210;DHT22;90;48.810;9.120;2024-01-25T06:22:42;8.80;84.70
210;DHT22;90;48.810;9.120;2024-01-25T06:25:08;8.90;84.90
210;DHT22;90;48.810;9.120;2024-01-25T06:27:35;8.90;85.00
210;DHT22;90;48.810;9.120;2024-01-25T06:30:02;8.90;84.80
210;DHT22;90;48.810;9.120;2024-01-25T06:32:29;8.90;84.90
210;DHT22;90;48.810;9.120;2024-01-25T06:34:56;8.90;85.00
210;DHT22;90;48.810;9.120;2024-01-25T06:37:23;8.90;84.80
210;DHT22;90;48.810;9.120;2024-01-25T06:39:51;9.00;84.50
210;DHT22;90;48.810;9.120;2024-01-25T06:42:17;8.90;84.60
210;DHT22;90;48.810;9.120;2024-01-25T06:44:44;8.90;84.70
210;DHT22;90;48.810;9.120;2024-01-25T06:47:11;8.80;84.90
210;DHT22;90;48.810;9.120;2024-01-25T06:49:38;8.90;84.80
210;DHT22;90;48.810;9.120;2024-01-25T06:52:05;8.70;85.40
210;DHT22;90;48.810;9.120;2024-01-25T06:54:32;8.70;85.60
210;DHT22;90;48.810;9.120;2024-01-25T06:57:00;8.70;85.30
210;DHT22;90;48.810;9.120;2024-01-25T06:59:28;8.70;85.50
210;DHT22;90;48.810;9.120;2024-01-25T07:01:54;8.70;85.60
210;DHT22;90;48.810;9.120;2024-01-25T07:04:21;8.70;85.10
210;DHT22;90;48.810;9.120;2024-01-25T07:06:48;8.70;85.40
210;DHT22;90;48.810;9.120;2024-01-25T07:09:15;8.70;85.30
210;DHT22;90;48.810;9.120;2024-01-25T07:11:41;8.70;85.30
210;DHT22;90;48.810;9.120;2024-01-25T07:14:09;8.70;85.20
210;DHT22;90;48.810;9.120;2024-01-25T07:16:36;8.70;85.10
210;DHT22;90;48.810;9.120;2024-01-25T07:19:03;8.70;84.80
210;DHT22;90;48.810;9.120;2024-01-25T07:21:30;8.80;84.80
210;DHT22;90;48.810;9.120;2024-01-25T07:23:58;8.80;84.50
210;DHT22;90;48.810;9.120;2024-01-25T07:26:25;8.90;84.40
210;DHT22;90;48.810;9.120;2024-01-25T07:28:52;9.00;83.60
210;DHT22;90;48.810;9.120;2024-01-25T07:31:25;9.00;83.40
210;DHT22;90;48.810;9.120;2024-01-25T07:33:51;9.00;83.40
210;DHT22;90;48.810;9.120;2024-01-25T07:36:18;9.00;83.20
210;DHT22;90;48.810;9.120;2024-01-25T07:38:45;8.90;83.10
210;DHT22;90;48.810;9.120;2024-01-25T07:41:13;8.90;83.20
210;DHT22;90;48.810;9.120;2024-01-25T07:43:40;8.80;83.00
210;DHT22;90;48.810;9.120;2024-01-25T07:46:09;8.70;83.40
210;DHT22;90;48.810;9.120;2024-01-25T07:48:37;8.80;83.30
210;DHT22;90;48.810;9.120;2024-01-25T07:51:10;8.70;83.60
210;DHT22;90;48.810;9.120;2024-01-25T07:53:37;8.70;83.70
210;DHT22;90;48.810;9.120;2024-01-25T07:56:06;8.80;83.50
210;DHT22;90;48.810;9.120;2024-01-25T07:58:33;8.80;83.30
210;DHT22;90;48.810;9.120;2024-01-25T08:01:02;8.80;83.30
210;DHT22;90;48.810;9.120;2024-01-25T08:03:30;8.80;83.20
210;DHT22;90;48.810;9.120;2024-01-25T08:05:58;8.70;83.60
210;DHT22;90;48.810;9.120;2024-01-25T08:08:25;8.70;83.30
210;DHT22;90;48.810;9.120;2024-01-25T08:10:52;8.70;83.20
210;DHT22;90;48.810;9.120;2024-01-25T08:13:19;8.70;83.00
210;DHT22;90;48.810;9.120;2024-01-25T08:15:46;8.70;82.90
210;DHT22;90;48.810;9.120;2024-01-25T08:18:13;8.70;83.00
210;DHT22;90;48.810;9.120;2024-01-25T08:20:39;8.80;82.80
210;DHT22;90;48.810;9.120;2024-01-25T08:23:08;8.90;82.30
210;DHT22;90;48.810;9.120;2024-01-25T08:25:35;8.80;82.00
210;DHT22;90;48.810;9.120;2024-01-25T08:28:02;8.80;82.10
210;DHT22;90;48.810;9.120;2024-01-25T08:30:28;9.00;83.10
210;DHT22;90;48.810;9.120;2024-01-25T08:32:55;8.90;81.60
210;DHT22;90;48.810;9.120;2024-01-25T08:35:22;9.00;81.50
210;DHT22;90;48.810;9.120;2024-01-25T08:37:49;9.00;81.10
210;DHT22;90;48.810;9.120;2024-01-25T08:40:17;9.10;80.90
210;DHT22;90;48.810;9.120;2024-01-25T08:42:44;9.10;80.50
210;DHT22;90;48.810;9.120;2024-01-25T08:45:10;9.20;80.00
210;DHT22;90;48.810;9.120;2024-01-25T08:47:37;9.10;80.20
210;DHT22;90;48.810;9.120;2024-01-25T08:50:05;9.20;79.90
210;DHT22;90;48.810;9.120;2024-01-25T08:52:35;9.20;79.60
210;DHT22;90;48.810;9.120;2024-01-25T08:55:03;9.20;79.60
210;DHT22;90;48.810;9.120;2024-01-25T08:57:31;9.40;78.80
210;DHT22;90;48.810;9.120;2024-01-25T08:59:58;9.40;79.10
210;DHT22;90;48.810;9.120;2024-01-25T09:02:26;9.30;79.00
210;DHT22;90;48.810;9.120;2024-01-25T09:04:55;9.40;79.10
210;DHT22;90;48.810;9.120;2024-01-25T09:07:22;9.50;79.00
210;DHT22;90;48.810;9.120;2024-01-25T09:09:49;9.60;78.40
210;DHT22;90;48.810;9.120;2024-01-25T09:12:15;9.70;77.40
210;DHT22;90;48.810;9.120;2024-01-25T09:14:43;9.60;77.70
210;DHT22;90;48.810;9.120;2024-01-25T09:17:10;9.80;77.20
210;DHT22;90;48.810;9.120;2024-01-25T09:19:39;9.80;77.30
210;DHT22;90;48.810;9.120;2024-01-25T09:22:06;9.80;77.30
210;DHT22;90;48.810;9.120;2024-01-25T09:24:35;9.80;76.70
210;DHT22;90;48.810;9.120;2024-01-25T09:27:02;9.70;77.00
210;DHT22;90;48.810;9.120;2024-01-25T09:29:29;9.70;77.40
210;DHT22;90;48.810;9.120;2024-01-25T09:31:57;9.80;77.10
210;DHT22;90;48.810;9.120;2024-01-25T09:34:24;9.80;76.80
210;DHT22;90;48.810;9.120;2024-01-25T09:36:51;9.90;76.30
210;DHT22;90;48.810;9.120;2024-01-25T09:39:18;10.00;76.10
210;DHT22;90;48.810;9.120;2024-01-25T09:41:45;10.00;75.40
210;DHT22;90;48.810;9.120;2024-01-25T09:44:12;10.10;75.70
210;DHT22;90;48.810;9.120;2024-01-25T09:46:40;10.10;75.00
210;DHT22;90;48.810;9.120;2024-01-25T09:49:09;10.20;74.90
210;DHT22;90;48.810;9.120;2024-01-25T09:51:38;10.30;75.00
210;DHT22;90;48.810;9.120;2024-01-25T09:54:05;10.30;74.60
210;DHT22;90;48.810;9.120;2024-01-25T09:56:33;10.20;74.50
210;DHT22;90;48.810;9.120;2024-01-25T09:59:00;10.30;74.00
210;DHT22;90;48.810;9.120;2024-01-25T10:01:27;10.30;74.00
210;DHT22;90;48.810;9.120;2024-01-25T10:03:54;10.30;74.50
210;DHT22;90;48.810;9.120;2024-01-25T10:06:23;10.30;74.30
210;DHT22;90;48.810;9.120;2024-01-25T10:08:50;10.40;73.80
210;DHT22;90;48.810;9.120;2024-01-25T10:11:17;10.50;73.70
210;DHT22;90;48.810;9.120;2024-01-25T10:13:45;10.40;73.00
210;DHT22;90;48.810;9.120;2024-01-25T10:16:13;10.50;73.20
210;DHT22;90;48.810;9.120;2024-01-25T10:18:40;10.50;72.80
210;DHT22;90;48.810;9.120;2024-01-25T10:21:09;10.40;72.80
210;DHT22;90;48.810;9.120;2024-01-25T10:23:44;10.50;73.10
210;DHT22;90;48.810;9.120;2024-01-25T10:26:11;10.50;72.70
210;DHT22;90;48.810;9.120;2024-01-25T10:28:38;10.50;72.40
210;DHT22;90;48.810;9.120;2024-01-25T10:31:04;10.70;76.00
210;DHT22;90;48.810;9.120;2024-01-25T10:33:31;10.80;72.60
210;DHT22;90;48.810;9.120;2024-01-25T10:35:58;10.90;72.10
210;DHT22;90;48.810;9.120;2024-01-25T10:38:29;11.00;71.80
210;DHT22;90;48.810;9.120;2024-01-25T10:40:59;11.10;71.80
210;DHT22;90;48.810;9.120;2024-01-25T10:43:26;11.20;72.20
210;DHT22;90;48.810;9.120;2024-01-25T10:45:53;11.10;71.90
210;DHT22;90;48.810;9.120;2024-01-25T10:48:23;11.10;72.30
210;DHT22;90;48.810;9.120;2024-01-25T10:50:49;11.20;72.50
210;DHT22;90;48.810;9.120;2024-01-25T10:53:17;11.20;72.50
210;DHT22;90;48.810;9.120;2024-01-25T10:55:44;11.20;71.90
210;DHT22;90;48.810;9.120;2024-01-25T10:58:14;11.20;72.20
210;DHT22;90;48.810;9.120;2024-01-25T11:00:50;11.20;72.70
210;DHT22;90;48.810;9.120;2024-01-25T11:03:18;11.30;72.80
210;DHT22;90;48.810;9.120;2024-01-25T11:05:45;11.30;72.50
210;DHT22;90;48.810;9.120;2024-01-25T11:08:18;11.40;72.50
210;DHT22;90;48.810;9.120;2024-01-25T11:10:49;11.40;72.20
210;DHT22;90;48.810;9.120;2024-01-25T11:13:23;11.40;72.00
210;DHT22;90;48.810;9.120;2024-01-25T11:15:50;11.30;71.50
210;DHT22;90;48.810;9.120;2024-01-25T11:18:17;11.10;71.00
210;DHT22;90;48.810;9.120;2024-01-25T11:20:47;11.20;70.00
210;DHT22;90;48.810;9.120;2024-01-25T11:23:16;11.30;69.50
210;DHT22;90;48.810;9.120;2024-01-25T11:25:45;11.30;69.90
210;DHT22;90;48.810;9.120;2024-01-25T11:28:14;11.30;69.90
210;DHT22;90;48.810;9.120;2024-01-25T11:30:43;11.20;68.90
210;DHT22;90;48.810;9.120;2024-01-25T11:33:11;11.40;71.30
210;DHT22;90;48.810;9.120;2024-01-25T11:35:39;11.30;68.60
210;DHT22;90;48.810;9.120;2024-01-25T11:38:08;11.20;69.00
210;DHT22;90;48.810;9.120;2024-01-25T11:40:35;11.20;69.40
210;DHT22;90;48.810;9.120;2024-01-25T11:43:05;11.10;69.90
210;DHT22;90;48.810;9.120;2024-01-25T11:45:36;11.20;70.00
210;DHT22;90;48.810;9.120;2024-01-25T11:48:09;11.30;70.20
210;DHT22;90;48.810;9.120;2024-01-25T11:50:36;11.20;70.90
210;DHT22;90;48.810;9.120;2024-01-25T11:53:03;11.20;71.20
210;DHT22;90;48.810;9.120;2024-01-25T11:55:30;11.20;71.30
210;DHT22;90;48.810;9.120;2024-01-25T11:57:56;11.40;71.00
210;DHT22;90;48.810;9.120;2024-01-25T12:00:23;11.50;70.70
210;DHT22;90;48.810;9.120;2024-01-25T12:02:50;11.50;70.80
210;DHT22;90;48.810;9.120;2024-01-25T12:05:19;11.60;70.00
210;DHT22;90;48.810;9.120;2024-01-25T12:07:46;11.50;69.70
210;DHT22;90;48.810;9.120;2024-01-25T12:10:16;11.40;69.60
210;DHT22;90;48.810;9.120;2024-01-25T12:12:43;11.50;69.40
210;DHT22;90;48.810;9.120;2024-01-25T12:15:09;11.50;69.50
210;DHT22;90;48.810;9.120;2024-01-25T12:17:36;11.60;69.50
210;DHT22;90;48.810;9.120;2024-01-25T12:20:05;11.70;69.30
210;DHT22;90;48.810;9.120;2024-01-25T12:22:37;11.80;68.00
210;DHT22;90;48.810;9.120;2024-01-25T12:25:07;11.90;67.70
210;DHT22;90;48.810;9.120;2024-01-25T12:27:35;12.00;66.10
210;DHT22;90;48.810;9.120;2024-01-25T12:30:03;12.00;66.10
210;DHT22;90;48.810;9.120;2024-01-25T12:32:30;12.10;67.40
210;DHT22;90;48.810;9.120;2024-01-25T12:34:58;12.20;67.50
210;DHT22;90;48.810;9.120;2024-01-25T12:37:26;12.20;68.20
210;DHT22;90;48.810;9.120;2024-01-25T12:39:54;12.30;67.00
210;DHT22;90;48.810;9.120;2024-01-25T12:42:21;12.40;68.10
210;DHT22;90;48.810;9.120;2024-01-25T12:44:52;12.40;69.00
210;DHT22;90;48.810;9.120;2024-01-25T12:47:19;12.40;68.70
210;DHT22;90;48.810;9.120;2024-01-25T12:49:45;12.40;69.50
210;DHT22;90;48.810;9.120;2024-01-25T12:52:14;12.50;69.30
210;DHT22;90;48.810;9.120;2024-01-25T12:54:41;12.60;69.30
210;DHT22;90;48.810;9.120;2024-01-25T12:57:09;12.60;69.90
210;DHT22;90;48.810;9.120;2024-01-25T12:59:37;12.70;69.20
210;DHT22;90;48.810;9.120;2024-01-25T13:02:04;12.80;68.90
210;DHT22;90;48.810;9.120;2024-01-25T13:04:32;12.90;68.80
210;DHT22;90;48.810;9.120;2024-01-25T13:06:58;12.80;67.50
210;DHT22;90;48.810;9.120;2024-01-25T13:09:25;12.70;68.10
210;DHT22;90;48.810;9.120;2024-01-25T13:11:52;12.60;68.60
210;DHT22;90;48.810;9.120;2024-01-25T13:14:20;12.70;68.20
210;DHT22;90;48.810;9.120;2024-01-25T13:16:52;12.70;67.70
210;DHT22;90;48.810;9.120;2024-01-25T13:19:26;12.70;68.00
210;DHT22;90;48.810;9.120;2024-01-25T13:22:08;12.70;67.80
210;DHT22;90;48.810;9.120;2024-01-25T13:24:35;12.80;67.80
210;DHT22;90;48.810;9.120;2024-01-25T13:27:07;12.90;67.20
210;DHT22;90;48.810;9.120;2024-01-25T13:29:35;12.90;67.10
210;DHT22;90;48.810;9.120;2024-01-25T13:32:10;13.00;67.60
210;DHT22;90;48.810;9.120;2024-01-25T13:34:37;13.10;66.80
210;DHT22;90;48.810;9.120;2024-01-25T13:37:05;13.20;66.60
210;DHT22;90;48.810;9.120;2024-01-25T13:39:34;13.30;65.80
210;DHT22;90;48.810;9.120;2024-01-25T13:42:05;13.20;65.40
210;DHT22;90;48.810;9.120;2024-01-25T13:45:01;13.20;65.10
210;DHT22;90;48.810;9.120;2024-01-25T13:48:17;13.00;65.90
210;DHT22;90;48.810;9.120;2024-01-25T13:50:56;13.10;66.10
210;DHT22;90;48.810;9.120;2024-01-25T13:53:31;13.10;65.80
210;DHT22;90;48.810;9.120;2024-01-25T13:56:09;12.90;65.80
210;DHT22;90;48.810;9.120;2024-01-25T13:58:55;12.90;66.30
210;DHT22;90;48.810;9.120;2024-01-25T14:01:50;12.90;66.00
210;DHT22;90;48.810;9.120;2024-01-25T14:04:37;12.80;66.20
210;DHT22;90;48.810;9.120;2024-01-25T14:07:16;12.70;66.40
210;DHT22;90;48.810;9.120;2024-01-25T14:09:49;12.70;66.50
210;DHT22;90;48.810;9.120;2024-01-25T14:12:26;12.70;66.40
210;DHT22;90;48.810;9.120;2024-01-25T14:14:59;12.80;66.40
210;DHT22;90;48.810;9.120;2024-01-25T14:17:38;12.90;66.30
210;DHT22;90;48.810;9.120;2024-01-25T14:20:09;13.10;65.60
210;DHT22;90;48.810;9.120;2024-01-25T14:25:38;13.10;65.10
210;DHT22;90;48.810;9.120;2024-01-25T14:28:08;13.00;65.50
210;DHT22;90;48.810;9.120;2024-01-25T14:30:38;12.90;65.90
210;DHT22;90;48.810;9.120;2024-01-25T14:33:25;12.90;66.20
210;DHT22;90;48.810;9.120;2024-01-25T14:35:57;12.80;66.60
210;DHT22;90;48.810;9.120;2024-01-25T14:38:29;12.60;67.10
210;DHT22;90;48.810;9.120;2024-01-25T14:41:02;12.50;67.30
210;DHT22;90;48.810;9.120;2024-01-25T14:43:36;12.40;67.50
210;DHT22;90;48.810;9.120;2024-01-25T14:46:04;12.30;68.20
210;DHT22;90;48.810;9.120;2024-01-25T14:48:32;12.20;69.00
210;DHT22;90;48.810;9.120;2024-01-25T14:50:58;12.10;69.60
210;DHT22;90;48.810;9.120;2024-01-25T14:53:28;12.00;70.20
210;DHT22;90;48.810;9.120;2024-01-25T14:55:55;12.00;70.40
210;DHT22;90;48.810;9.120;2024-01-25T14:58:22;12.00;70.20
210;DHT22;90;48.810;9.120;2024-01-25T15:00:49;12.00;70.00
210;DHT22;90;48.810;9.120;2024-01-25T15:03:16;11.90;69.80
210;DHT22;90;48.810;9.120;2024-01-25T15:05:47;11.80;69.60
210;DHT22;90;48.810;9.120;2024-01-25T15:08:14;11.70;70.00
210;DHT22;90;48.810;9.120;2024-01-25T15:10:40;11.60;70.30
210;DHT22;90;48.810;9.120;2024-01-25T15:13:07;11.60;70.40
210;DHT22;90;48.810;9.120;2024-01-25T15:15:34;11.50;71.00
210;DHT22;90;48.810;9.120;2024-01-25T15:18:00;11.40;71.50
210;DHT22;90;48.810;9.120;2024-01-25T15:20:28;11.40;71.60
210;DHT22;90;48.810;9.120;2024-01-25T15:22:56;11.40;71.70
210;DHT22;90;48.810;9.120;2024-01-25T15:25:23;11.40;71.90
210;DHT22;90;48.810;9.120;2024-01-25T15:27:52;11.40;72.20
210;DHT22;90;48.810;9.120;2024-01-25T15:30:18;11.30;72.70
210;DHT22;90;48.810;9.120;2024-01-25T15:32:45;11.30;72.70
210;DHT22;90;48.810;9.120;2024-01-25T15:35:12;11.30;72.80
210;DHT22;90;48.810;9.120;2024-01-25T15:37:39;11.30;72.60
210;DHT22;90;48.810;9.120;2024-01-25T15:40:09;11.30;72.40
210;DHT22;90;48.810;9.120;2024-01-25T15:42:37;11.20;72.50
210;DHT22;90;48.810;9.120;2024-01-25T15:45:05;11.20;72.40
210;DHT22;90;48.810;9.120;2024-01-25T15:47:32;11.20;72.10
210;DHT22;90;48.810;9.120;2024-01-25T15:49:58;11.20;72.20
210;DHT22;90;48.810;9.120;2024-01-25T15:52:25;11.20;72.10
210;DHT22;90;48.810;9.120;2024-01-25T15:54:52;11.10;72.20
210;DHT22;90;48.810;9.120;2024-01-25T15:57:20;11.00;72.80
210;DHT22;90;48.810;9.120;2024-01-25T15:59:47;11.00;72.90
210;DHT22;90;48.810;9.120;2024-01-25T16:02:14;10.90;73.50
210;DHT22;90;48.810;9.120;2024-01-25T16:04:41;10.90;73.70
210;DHT22;90;48.810;9.120;2024-01-25T16:07:08;10.90;73.70
210;DHT22;90;48.810;9.120;2024-01-25T16:09:35;10.90;73.70
210;DHT22;90;48.810;9.120;2024-01-25T16:12:02;10.90;73.70
210;DHT22;90;48.810;9.120;2024-01-25T16:14:31;10.90;73.80
210;DHT22;90;48.810;9.120;2024-01-25T16:16:57;10.90;74.00
210;DHT22;90;48.810;9.120;2024-01-25T16:19:24;10.90;74.10
210;DHT22;90;48.810;9.120;2024-01-25T16:21:51;10.90;74.10
210;DHT22;90;48.810;9.120;2024-01-25T16:24:17;10.90;74.10
210;DHT22;90;48.810;9.120;2024-01-25T16:26:45;10.90;73.90
210;DHT22;90;48.810;9.120;2024-01-25T16:29:12;11.00;73.70
210;DHT22;90;48.810;9.120;2024-01-25T16:31:40;11.00;73.70
210;DHT22;90;48.810;9.120;2024-01-25T16:34:06;10.90;74.10
210;DHT22;90;48.810;9.120;2024-01-25T16:36:33;11.00;74.20
210;DHT22;90;48.810;9.120;2024-01-25T16:39:00;11.00;74.30
210;DHT22;90;48.810;9.120;2024-01-25T16:41:27;11.00;74.60
210;DHT22;90;48.810;9.120;2024-01-25T16:43:53;11.00;74.60
210;DHT22;90;48.810;9.120;2024-01-25T16:46:20;11.00;74.60
210;DHT22;90;48.810;9.120;2024-01-25T16:48:48;11.00;74.60
210;DHT22;90;48.810;9.120;2024-01-25T16:51:15;10.90;75.00
210;DHT22;90;48.810;9.120;2024-01-25T16:53:42;10.90;75.00
210;DHT22;90;48.810;9.120;2024-01-25T16:56:09;10.90;75.10
210;DHT22;90;48.810;9.120;2024-01-25T16:58:36;10.90;75.00
210;DHT22;90;48.810;9.120;2024-01-25T17:01:03;10.90;75.00
210;DHT22;90;48.810;9.120;2024-01-25T17:03:30;10.90;75.10
210;DHT22;90;48.810;9.120;2024-01-25T17:05:58;10.80;75.40
210;DHT22;90;48.810;9.120;2024-01-25T17:08:25;10.80;75.50